Time;durP1;ratioP1;P1;durP2;ratioP2;P2;SDS_P1;SDS_P2;PMS_P1;PMS_P2;Temp;Humidity;BMP_temperature;BMP_pressure;BME280_temperature;BME280_humidity;BME280_pressure;Samples;Min_cycle;Max_cycle;Signal;HPM_P1;HPM_P2
2022/09/12 00:01:09;;;;;;;;;15.67;13.00;;;;;18.67;66.87;100915.88;5091700;27;45468;-55
2022/09/12 00:03:35;;;;;;;;;15.33;12.33;;;;;18.71;66.75;100920.84;5095974;27;45380;-54
2022/09/12 00:06:07;;;;;;;;;11.00;10.33;;;;;18.73;66.86;100918.88;5087409;27;45231;-54
2022/09/12 00:08:33;;;;;;;;;12.33;11.00;;;;;18.70;66.73;100912.91;5092123;27;45355;-55
2022/09/12 00:11:04;;;;;;;;;11.67;11.67;;;;;18.65;66.77;100907.06;5097539;27;45485;-53
2022/09/12 00:13:29;;;;;;;;;16.00;13.67;;;;;18.64;66.92;100911.59;5091598;27;45634;-54
2022/09/12 00:15:55;;;;;;;;;14.00;12.67;;;;;18.65;66.81;100909.75;5096072;27;45451;-53
2022/09/12 00:18:20;;;;;;;;;12.33;11.00;;;;;18.66;66.80;100909.63;5085130;27;45456;-54
2022/09/12 00:20:46;;;;;;;;;13.67;13.33;;;;;18.66;67.18;100908.78;5077672;27;45381;-53
2022/09/12 00:23:12;;;;;;;;;16.67;15.00;;;;;18.63;66.92;100907.16;5090091;27;45956;-53
2022/09/12 00:25:43;;;;;;;;;9.00;9.00;;;;;18.61;67.38;100901.03;5097862;27;45511;-53
2022/09/12 00:28:08;;;;;;;;;13.67;12.00;;;;;18.60;67.34;100896.63;5092214;27;45518;-53
2022/09/12 00:30:33;;;;;;;;;15.00;14.33;;;;;18.58;67.16;100891.38;5087821;27;46130;-54
2022/09/12 00:32:59;;;;;;;;;12.67;12.00;;;;;18.55;67.07;100890.78;5090237;27;45328;-54
2022/09/12 00:35:24;;;;;;;;;13.33;11.33;;;;;18.55;67.10;100878.16;5095028;27;45361;-55
2022/09/12 00:37:50;;;;;;;;;11.67;11.00;;;;;18.57;67.13;100888.81;5087868;27;45639;-53
2022/09/12 00:40:15;;;;;;;;;17.00;15.00;;;;;18.56;67.03;100885.25;5092279;27;56235;-53
2022/09/12 00:42:41;;;;;;;;;12.00;10.33;;;;;18.56;67.27;100881.72;5100538;27;45597;-53
2022/09/12 00:45:22;;;;;;;;;12.00;11.00;;;;;18.54;67.33;100878.31;5095516;27;45258;-51
2022/09/12 00:47:48;;;;;;;;;17.00;14.67;;;;;18.52;67.30;100864.13;5094960;27;45427;-54
2022/09/12 00:50:15;;;;;;;;;14.00;12.67;;;;;18.54;67.42;100870.22;5092463;27;46713;-53
2022/09/12 00:52:49;;;;;;;;;14.00;13.67;;;;;18.52;67.43;100870.34;5089593;27;45469;-55
2022/09/12 00:55:20;;;;;;;;;11.67;10.67;;;;;18.49;67.46;100858.97;5097042;27;45319;-53
2022/09/12 00:57:56;;;;;;;;;14.33;12.33;;;;;18.50;67.69;100852.63;5088811;27;45540;-55
2022/09/12 01:00:24;;;;;;;;;11.33;11.33;;;;;18.50;67.26;100855.31;5092782;27;45400;-55
2022/09/12 01:02:57;;;;;;;;;12.00;11.33;;;;;18.52;67.28;100864.13;5095429;27;45467;-55
2022/09/12 01:05:24;;;;;;;;;11.67;11.67;;;;;18.52;67.36;100853.34;5097041;27;45419;-54
2022/09/12 01:07:51;;;;;;;;;10.67;10.00;;;;;18.52;67.15;100858.72;5089069;27;45716;-54
2022/09/12 01:10:18;;;;;;;;;11.33;9.00;;;;;18.51;67.43;100852.50;5096488;27;46664;-54
2022/09/12 01:12:44;;;;;;;;;15.67;12.00;;;;;18.51;66.99;100859.72;5092819;27;45356;-53
2022/09/12 01:15:11;;;;;;;;;10.33;10.00;;;;;18.50;67.31;100855.31;5083452;27;45530;-50
2022/09/12 01:18:26;;;;;;;;;13.33;12.00;;;;;18.46;67.31;100852.00;5086482;27;45306;-53
2022/09/12 01:21:10;;;;;;;;;13.67;11.00;;;;;18.47;67.55;100844.78;5086860;27;46052;-55
2022/09/12 01:23:55;;;;;;;;;10.33;10.33;;;;;18.41;67.25;100842.63;5077877;27;45349;-53
2022/09/12 01:26:35;;;;;;;;;13.67;9.33;;;;;18.43;67.64;100849.59;5077454;27;45331;-55
2022/09/12 01:29:47;;;;;;;;;11.33;8.67;;;;;18.43;67.56;100852.28;5095196;27;45388;-54
2022/09/12 01:32:24;;;;;;;;;12.67;11.67;;;;;18.41;67.39;100839.94;5084008;27;47027;-53
2022/09/12 01:34:56;;;;;;;;;9.67;8.67;;;;;18.40;67.64;100838.22;5092448;27;45388;-55
2022/09/12 01:37:36;;;;;;;;;14.00;11.67;;;;;18.39;67.56;100834.69;5090382;27;45566;-55
2022/09/12 01:40:30;;;;;;;;;12.00;12.00;;;;;18.38;67.66;100824.03;5096423;27;45415;-54
2022/09/12 01:43:07;;;;;;;;;15.33;12.67;;;;;18.32;67.80;100817.31;5085950;27;46255;-54
2022/09/12 01:45:58;;;;;;;;;8.33;8.33;;;;;18.35;67.70;100826.97;5090481;27;45459;-55
2022/09/12 01:48:30;;;;;;;;;11.00;10.33;;;;;18.34;67.71;100822.56;5074971;27;45573;-55
2022/09/12 01:51:03;;;;;;;;;9.33;9.33;;;;;18.33;67.61;100828.94;5123096;27;45539;-53
2022/09/12 01:53:37;;;;;;;;;14.00;10.33;;;;;18.24;67.93;100823.38;5084447;27;46519;-54
2022/09/12 01:56:09;;;;;;;;;10.00;10.00;;;;;18.26;68.21;100823.25;5093944;27;45559;-53
2022/09/12 01:58:59;;;;;;;;;14.67;12.00;;;;;18.30;67.96;100827.38;5093512;27;45438;-54
2022/09/12 02:01:29;;;;;;;;;11.00;11.00;;;;;18.30;67.90;100821.97;5077400;27;45229;-53
2022/09/12 02:04:11;;;;;;;;;11.67;11.67;;;;;18.22;68.00;100825.31;5090316;27;45388;-54
2022/09/12 02:06:48;;;;;;;;;10.00;8.33;;;;;18.25;67.99;100825.09;5095120;27;45330;-54
2022/09/12 02:09:22;;;;;;;;;13.33;13.33;;;;;18.22;68.23;100828.00;5093053;27;45610;-52
2022/09/12 02:11:52;;;;;;;;;13.00;13.00;;;;;18.21;68.65;100828.13;5080574;27;46754;-53
2022/09/12 02:14:23;;;;;;;;;14.67;14.67;;;;;18.14;68.61;100813.50;5088302;27;47219;-55
2022/09/12 02:17:01;;;;;;;;;16.67;14.00;;;;;18.13;68.54;100812.66;5092638;27;45554;-52
2022/09/12 02:19:33;;;;;;;;;13.33;12.00;;;;;18.18;68.54;100821.19;5091469;27;45534;-53
2022/09/12 02:22:02;;;;;;;;;13.33;13.33;;;;;18.16;68.46;100815.09;5082946;27;45539;-54
2022/09/12 02:24:35;;;;;;;;;15.67;13.67;;;;;18.14;68.93;100811.66;5096743;27;46146;-55
2022/09/12 02:27:13;;;;;;;;;15.67;15.67;;;;;18.15;68.63;100808.00;5090592;27;45546;-55
2022/09/12 02:29:39;;;;;;;;;10.00;10.00;;;;;18.17;68.78;100806.00;5082751;27;45324;-55
2022/09/12 02:32:17;;;;;;;;;16.00;12.33;;;;;18.08;68.51;100796.00;5083517;27;45417;-54
2022/09/12 02:34:58;;;;;;;;;15.00;15.00;;;;;18.13;68.59;100801.88;5081937;27;45522;-55
2022/09/12 02:37:53;;;;;;;;;13.00;12.67;;;;;18.11;68.84;100806.56;5087456;27;45424;-53
2022/09/12 02:40:18;;;;;;;;;14.33;11.67;;;;;18.10;68.49;100799.47;5089221;27;45469;-52
2022/09/12 02:42:44;;;;;;;;;16.00;14.00;;;;;18.07;68.91;100799.69;5094047;27;45567;-53
2022/09/12 02:45:11;;;;;;;;;16.00;16.00;;;;;18.00;69.46;100801.22;5109127;27;46058;-52
2022/09/12 02:47:38;;;;;;;;;16.67;16.67;;;;;17.93;69.77;100791.94;5090365;27;45460;-56
2022/09/12 02:50:06;;;;;;;;;19.33;16.67;;;;;17.84;69.77;100782.81;5078126;27;45306;-55
2022/09/12 02:52:32;;;;;;;;;12.00;12.00;;;;;17.80;70.22;100786.72;5089512;27;45596;-55
2022/09/12 02:54:58;;;;;;;;;16.33;14.00;;;;;17.74;70.54;100792.63;5083146;27;45394;-54
2022/09/12 02:57:23;;;;;;;;;15.00;15.00;;;;;17.71;70.50;100786.63;5085235;27;45507;-55
2022/09/12 02:59:52;;;;;;;;;12.00;11.33;;;;;17.64;70.65;100780.88;5077668;27;45330;-56
2022/09/12 03:02:24;;;;;;;;;14.33;12.00;;;;;17.64;70.51;100780.88;5077278;27;45774;-54
2022/09/12 03:04:59;;;;;;;;;17.33;17.33;;;;;17.62;70.75;100772.94;5078634;27;46370;-55
2022/09/12 03:07:30;;;;;;;;;16.00;15.67;;;;;17.57;70.63;100777.81;5111221;27;46406;-54
2022/09/12 03:10:17;;;;;;;;;19.00;16.67;;;;;17.54;70.55;100772.69;5092609;27;45340;-53
2022/09/12 03:13:03;;;;;;;;;24.67;19.67;;;;;17.54;70.38;100767.31;5080307;27;45372;-53
2022/09/12 03:15:45;;;;;;;;;14.00;14.00;;;;;17.51;71.06;100767.59;5096298;27;47089;-54
2022/09/12 03:18:30;;;;;;;;;19.00;19.00;;;;;17.48;71.55;100770.53;5097690;27;45366;-54
2022/09/12 03:21:07;;;;;;;;;24.00;22.33;;;;;17.44;71.45;100773.56;5091049;27;45542;-54
2022/09/12 03:23:59;;;;;;;;;23.00;22.33;;;;;17.39;71.13;100772.13;5085506;27;45722;-52
2022/09/12 03:26:31;;;;;;;;;30.00;26.67;;;;;17.37;71.10;100763.34;5084373;27;46880;-53
2022/09/12 03:29:01;;;;;;;;;28.00;25.33;;;;;17.44;71.10;100762.81;5077187;27;45457;-54
2022/09/12 03:31:26;;;;;;;;;25.00;24.67;;;;;17.43;71.01;100764.66;5083399;27;45726;-54
2022/09/12 03:33:51;;;;;;;;;32.67;26.33;;;;;17.43;71.41;100761.97;5100042;27;45585;-54
2022/09/12 03:36:28;;;;;;;;;35.33;28.00;;;;;17.38;71.16;100758.81;5092889;27;45350;-54
2022/09/12 03:38:54;;;;;;;;;32.67;31.67;;;;;17.38;70.91;100742.69;5087284;27;45459;-60
2022/09/12 03:41:20;;;;;;;;;41.67;33.00;;;;;17.37;71.37;100744.50;5096732;27;45385;-54
2022/09/12 03:43:46;;;;;;;;;34.00;33.00;;;;;17.36;71.50;100747.34;5098292;27;45544;-56
2022/09/12 03:46:12;;;;;;;;;34.33;32.67;;;;;17.36;71.26;100750.03;5082640;27;45727;-58
2022/09/12 03:48:38;;;;;;;;;29.67;27.67;;;;;17.29;71.46;100740.75;5098984;27;45254;-54
2022/09/12 03:51:07;;;;;;;;;28.67;25.33;;;;;17.31;71.77;100741.47;5092187;27;45473;-55
2022/09/12 03:53:32;;;;;;;;;19.00;16.67;;;;;17.30;71.81;100740.59;5098727;27;45483;-56
2022/09/12 03:55:58;;;;;;;;;26.33;22.33;;;;;17.32;71.76;100743.19;5097673;27;45923;-53
2022/09/12 03:58:28;;;;;;;;;24.00;21.67;;;;;17.30;71.68;100742.44;5084150;27;46650;-55
2022/09/12 04:00:54;;;;;;;;;22.67;20.33;;;;;17.28;71.65;100742.56;5077551;27;45497;-55
2022/09/12 04:03:19;;;;;;;;;20.33;17.33;;;;;17.27;71.78;100748.94;5084311;27;45551;-53
2022/09/12 04:05:46;;;;;;;;;20.33;20.33;;;;;17.28;71.44;100749.78;5098517;27;45400;-55
2022/09/12 04:08:11;;;;;;;;;20.00;20.00;;;;;17.25;72.13;100760.78;5093822;27;45772;-53
2022/09/12 04:10:37;;;;;;;;;19.33;17.00;;;;;17.24;71.63;100751.03;5096064;27;45389;-55
2022/09/12 04:13:02;;;;;;;;;17.33;17.33;;;;;17.24;71.93;100756.41;5091373;27;45664;-53
2022/09/12 04:15:27;;;;;;;;;14.33;14.33;;;;;17.24;71.65;100761.78;5082248;27;45632;-55
2022/09/12 04:17:53;;;;;;;;;19.00;19.00;;;;;17.24;71.86;100759.09;5083597;27;45479;-60
2022/09/12 04:20:18;;;;;;;;;29.67;23.67;;;;;17.16;71.77;100753.47;5096983;27;45244;-55
2022/09/12 04:22:44;;;;;;;;;25.67;24.33;;;;;17.19;72.03;100763.97;5093703;27;45571;-58
2022/09/12 04:25:10;;;;;;;;;26.67;23.00;;;;;17.17;72.16;100765.91;5098720;27;46256;-54
2022/09/12 04:27:36;;;;;;;;;25.67;23.00;;;;;17.02;72.47;100747.38;5082174;27;45326;-55
2022/09/12 04:30:03;;;;;;;;;28.00;21.33;;;;;17.14;72.11;100760.81;5093224;27;45540;-54
2022/09/12 04:32:30;;;;;;;;;25.67;20.67;;;;;17.13;72.51;100761.78;5090373;27;45637;-53
2022/09/12 04:34:55;;;;;;;;;22.00;20.00;;;;;17.12;72.08;100752.00;5089251;27;45330;-54
2022/09/12 04:37:22;;;;;;;;;26.67;24.67;;;;;17.07;72.23;100750.56;5087051;27;45259;-56
2022/09/12 04:39:48;;;;;;;;;25.00;22.33;;;;;17.10;72.14;100744.94;5090836;27;45336;-55
2022/09/12 04:42:14;;;;;;;;;30.67;23.67;;;;;17.16;72.50;100753.47;5092714;27;45638;-52
2022/09/12 04:44:39;;;;;;;;;22.33;22.33;;;;;17.15;72.68;100758.00;5090516;27;46662;-55
2022/09/12 04:47:05;;;;;;;;;26.00;24.00;;;;;17.16;72.16;100758.84;5096420;27;45266;-55
2022/09/12 04:49:30;;;;;;;;;31.67;29.67;;;;;17.14;72.06;100758.13;5095602;27;45409;-55
2022/09/12 04:51:55;;;;;;;;;22.67;22.67;;;;;17.14;71.95;100750.06;5097793;27;45582;-52
2022/09/12 04:54:21;;;;;;;;;29.67;26.67;;;;;17.12;72.23;100752.88;5097670;27;46056;-55
2022/09/12 04:56:48;;;;;;;;;29.33;24.00;;;;;17.09;72.42;100748.59;5095116;27;45356;-53
2022/09/12 04:59:15;;;;;;;;;24.33;23.00;;;;;17.09;72.12;100743.22;5081738;27;45377;-55
2022/09/12 05:01:41;;;;;;;;;26.67;23.33;;;;;17.06;72.09;100738.09;5094772;27;45399;-55
2022/09/12 05:04:09;;;;;;;;;31.00;26.33;;;;;17.09;72.36;100737.00;5096721;27;46270;-54
2022/09/12 05:06:36;;;;;;;;;30.67;26.33;;;;;17.07;72.44;100734.44;5095716;27;45241;-54
2022/09/12 05:09:03;;;;;;;;;32.33;26.00;;;;;17.04;72.64;100734.66;5096058;27;45220;-54
2022/09/12 05:11:32;;;;;;;;;20.33;16.00;;;;;16.97;72.74;100714.66;5089495;27;45558;-56
2022/09/12 05:13:58;;;;;;;;;18.00;16.33;;;;;17.00;72.57;100722.47;5094112;27;47087;-57
2022/09/12 05:16:24;;;;;;;;;16.67;15.33;;;;;17.06;72.86;100727.38;5095362;27;45226;-55
2022/09/12 05:18:50;;;;;;;;;17.33;14.67;;;;;17.04;72.85;100713.16;5095906;27;45439;-54
2022/09/12 05:21:19;;;;;;;;;17.00;17.00;;;;;17.09;72.33;100726.25;5096472;27;45306;-54
2022/09/12 05:23:46;;;;;;;;;20.33;15.00;;;;;17.10;72.37;100731.50;5094608;27;45409;-54
2022/09/12 05:26:15;;;;;;;;;16.67;16.67;;;;;17.06;72.21;100726.50;5089532;27;45421;-55
2022/09/12 05:28:41;;;;;;;;;16.00;14.00;;;;;17.13;72.33;100735.75;5081099;27;45689;-56
2022/09/12 05:31:14;;;;;;;;;19.33;15.67;;;;;17.09;72.22;100732.47;5094221;27;45503;-55
2022/09/12 05:33:41;;;;;;;;;14.00;12.00;;;;;17.16;71.64;100740.03;5096153;27;48068;-53
2022/09/12 05:36:16;;;;;;;;;12.33;12.33;;;;;17.13;71.45;100732.22;5092772;27;45508;-55
2022/09/12 05:38:42;;;;;;;;;11.00;9.33;;;;;17.20;71.50;100749.56;5076505;27;45342;-55
2022/09/12 05:41:12;;;;;;;;;10.00;9.33;;;;;17.24;71.21;100745.66;5097252;27;45598;-56
2022/09/12 05:43:40;;;;;;;;;0.67;0.67;;;;;17.25;71.48;100736.59;5094158;27;47122;-56
2022/09/12 05:46:11;;;;;;;;;20.00;20.00;;;;;17.26;71.87;100738.31;5097864;27;45332;-56
2022/09/12 05:48:38;;;;;;;;;17.00;17.00;;;;;17.25;71.47;100739.28;5096390;27;45457;-57
2022/09/12 05:51:11;;;;;;;;;22.33;20.00;;;;;17.25;71.82;100741.97;5094767;27;45585;-56
2022/09/12 05:53:38;;;;;;;;;30.00;21.33;;;;;17.27;71.15;100740.88;5087259;27;48218;-56
2022/09/12 05:56:17;;;;;;;;;15.33;15.33;;;;;17.28;70.93;100737.19;5074451;28;45388;-57
2022/09/12 05:58:45;;;;;;;;;18.67;18.67;;;;;17.32;71.18;100740.50;5092499;27;45264;-57
2022/09/12 06:01:16;;;;;;;;;18.67;18.67;;;;;17.30;71.53;100745.97;5096995;27;45390;-56
2022/09/12 06:03:46;;;;;;;;;19.00;16.67;;;;;17.22;71.42;100736.84;5095836;27;46617;-62
2022/09/12 06:06:13;;;;;;;;;18.00;16.67;;;;;17.24;71.67;100735.75;5093061;27;45421;-60
2022/09/12 06:08:41;;;;;;;;;21.00;18.00;;;;;17.29;71.27;100738.06;5108591;27;45405;-57
2022/09/12 06:11:08;;;;;;;;;19.67;16.67;;;;;17.32;71.39;100732.44;5096558;27;45592;-59
2022/09/12 06:13:36;;;;;;;;;20.67;17.67;;;;;17.35;71.28;100734.88;5093967;27;45405;-57
2022/09/12 06:16:09;;;;;;;;;13.33;13.33;;;;;17.39;71.04;100728.25;5096737;27;45328;-57
2022/09/12 06:18:36;;;;;;;;;14.33;14.33;;;;;17.37;71.02;100736.44;5095000;27;45423;-59
2022/09/12 06:21:03;;;;;;;;;13.00;12.00;;;;;17.39;71.38;100739.88;5096328;27;45521;-62
2022/09/12 06:23:29;;;;;;;;;16.67;15.33;;;;;17.38;71.51;100742.69;5090940;27;47388;-59
2022/09/12 06:25:54;;;;;;;;;22.00;20.00;;;;;17.40;71.77;100746.94;5076236;27;45290;-58
2022/09/12 06:28:20;;;;;;;;;16.33;14.67;;;;;17.44;70.87;100754.75;5078417;27;45478;-59
2022/09/12 06:30:45;;;;;;;;;21.33;18.67;;;;;17.44;71.31;100752.06;5097943;27;45175;-59
2022/09/12 06:33:10;;;;;;;;;16.67;15.33;;;;;17.33;71.44;100742.22;5092191;27;46838;-58
2022/09/12 06:35:37;;;;;;;;;17.33;17.33;;;;;17.43;71.43;100751.22;5089554;27;45443;-62
2022/09/12 06:38:03;;;;;;;;;18.67;16.33;;;;;17.43;71.39;100759.28;5084045;27;45500;-58
2022/09/12 06:40:28;;;;;;;;;15.33;15.33;;;;;17.47;70.83;100746.47;5099979;27;45625;-60
2022/09/12 06:42:54;;;;;;;;;20.33;17.33;;;;;17.44;71.03;100752.91;5094899;27;45429;-59
2022/09/12 06:45:20;;;;;;;;;21.33;18.33;;;;;17.42;71.13;100738.75;5097923;27;45579;-61
2022/09/12 06:47:45;;;;;;;;;23.00;23.00;;;;;17.47;70.67;100754.53;5091323;27;45488;-60
2022/09/12 06:50:10;;;;;;;;;17.33;17.33;;;;;17.49;71.15;100760.63;5097428;27;45555;-59
2022/09/12 06:52:36;;;;;;;;;18.00;18.00;;;;;17.46;71.00;100750.97;5092884;27;46159;-61
2022/09/12 06:55:02;;;;;;;;;19.00;19.00;;;;;17.52;70.83;100752.31;5087262;27;45481;-60
2022/09/12 06:57:29;;;;;;;;;22.33;17.33;;;;;17.59;70.78;100757.06;5084786;27;45506;-60
2022/09/12 06:59:55;;;;;;;;;21.00;18.67;;;;;17.59;70.64;100746.31;5098854;27;45388;-60
2022/09/12 07:02:20;;;;;;;;;22.00;19.67;;;;;17.56;70.54;100735.78;5099991;27;45493;-60
2022/09/12 07:04:46;;;;;;;;;22.67;19.33;;;;;17.66;70.61;100742.09;5100318;27;45531;-60
2022/09/12 07:07:11;;;;;;;;;22.67;21.00;;;;;17.70;70.51;100740.03;5091341;27;45385;-60
2022/09/12 07:09:37;;;;;;;;;19.67;19.67;;;;;17.73;70.01;100736.25;5095628;27;45746;-59
2022/09/12 07:12:03;;;;;;;;;25.33;24.00;;;;;17.78;70.01;100740.25;5096120;27;46093;-61
2022/09/12 07:14:29;;;;;;;;;15.33;15.33;;;;;17.84;69.96;100749.63;5098053;27;45620;-59
2022/09/12 07:16:54;;;;;;;;;17.00;15.67;;;;;17.89;69.28;100747.44;5096671;27;45537;-61
2022/09/12 07:19:19;;;;;;;;;24.00;17.33;;;;;17.92;69.33;100741.78;5098529;27;45547;-59
2022/09/12 07:21:45;;;;;;;;;17.67;14.00;;;;;17.98;68.71;100743.97;5096057;27;45595;-59
2022/09/12 07:24:10;;;;;;;;;9.00;7.00;;;;;18.07;67.61;100740.47;5097475;27;45528;-61
2022/09/12 07:26:37;;;;;;;;;14.00;10.67;;;;;18.14;67.29;100746.22;5094882;27;46896;-58
2022/09/12 07:29:04;;;;;;;;;10.00;10.00;;;;;18.10;67.11;100732.19;5098586;27;45629;-60
2022/09/12 07:31:29;;;;;;;;;9.00;9.00;;;;;18.25;66.44;100736.25;5094856;27;46147;-60
2022/09/12 07:33:55;;;;;;;;;10.00;10.00;;;;;18.28;66.68;100732.44;5095572;27;45374;-58
2022/09/12 07:36:24;;;;;;;;;10.33;10.33;;;;;18.40;66.34;100733.22;5088512;27;45355;-58
2022/09/12 07:38:54;;;;;;;;;13.00;13.00;;;;;18.45;66.16;100739.88;5091101;27;45596;-57
2022/09/12 07:41:22;;;;;;;;;14.00;14.00;;;;;18.51;66.30;100725.06;5080728;27;46123;-59
2022/09/12 07:43:51;;;;;;;;;14.33;14.33;;;;;18.64;65.62;100749.13;5080594;27;45395;-58
2022/09/12 07:46:16;;;;;;;;;19.67;17.67;;;;;18.67;65.77;100741.59;5089066;27;45321;-58
2022/09/12 07:48:43;;;;;;;;;9.00;9.00;;;;;18.71;65.18;100740.34;5081001;27;45470;-58
2022/09/12 07:51:10;;;;;;;;;11.00;11.00;;;;;18.73;65.17;100738.34;5090826;27;45456;-60
2022/09/12 07:53:38;;;;;;;;;11.00;9.33;;;;;18.77;65.07;100741.66;5095296;27;45452;-58
2022/09/12 07:56:05;;;;;;;;;11.67;10.33;;;;;18.77;65.03;100744.34;5097138;27;45488;-57
2022/09/12 07:58:32;;;;;;;;;15.00;12.00;;;;;18.83;65.09;100743.81;5090092;27;45437;-58
2022/09/12 08:01:07;;;;;;;;;11.33;10.67;;;;;18.89;65.16;100742.44;5094553;27;46176;-60
2022/09/12 08:03:33;;;;;;;;;9.00;6.00;;;;;18.96;64.90;100738.19;5096579;27;45439;-61
2022/09/12 08:06:07;;;;;;;;;9.00;8.67;;;;;18.99;64.71;100732.50;5088220;27;45386;-60
2022/09/12 08:08:33;;;;;;;;;13.33;11.33;;;;;19.07;64.17;100741.63;5088937;27;45436;-57
2022/09/12 08:11:01;;;;;;;;;18.33;13.00;;;;;19.10;64.39;100727.00;5089137;27;46405;-57
2022/09/12 08:13:29;;;;;;;;;9.00;9.00;;;;;19.22;64.03;100738.53;5099847;27;45391;-56
2022/09/12 08:16:00;;;;;;;;;11.67;11.67;;;;;19.26;63.53;100735.44;5106311;27;45425;-60
2022/09/12 08:18:29;;;;;;;;;9.67;9.00;;;;;19.33;63.52;100739.28;5092583;27;45271;-59
2022/09/12 08:21:00;;;;;;;;;11.00;9.33;;;;;19.39;63.06;100740.56;5095994;27;45514;-57
2022/09/12 08:23:27;;;;;;;;;8.00;7.67;;;;;19.48;62.82;100737.03;5084849;27;45440;-60
2022/09/12 08:25:57;;;;;;;;;11.33;11.33;;;;;19.56;62.20;100731.00;5094378;27;45382;-59
2022/09/12 08:28:25;;;;;;;;;12.00;12.00;;;;;19.64;62.09;100731.97;5095659;27;45424;-60
2022/09/12 08:30:51;;;;;;;;;9.33;9.33;;;;;19.80;62.67;100734.13;5085400;27;46402;-59
2022/09/12 08:33:17;;;;;;;;;11.00;9.67;;;;;19.97;61.87;100732.56;5086438;27;46829;-60
2022/09/12 08:35:42;;;;;;;;;10.33;10.33;;;;;20.07;60.79;100727.16;5075862;27;45361;-60
2022/09/12 08:38:08;;;;;;;;;9.00;8.00;;;;;20.18;60.23;100721.56;5086502;27;45658;-60
2022/09/12 08:40:49;;;;;;;;;10.67;9.33;;;;;20.32;60.91;100730.09;5099051;27;45466;-58
2022/09/12 08:43:44;;;;;;;;;10.00;10.00;;;;;20.43;60.39;100725.53;5090878;27;45377;-58
2022/09/12 08:46:27;;;;;;;;;9.33;7.67;;;;;20.52;60.16;100724.66;5077586;27;45517;-56
2022/09/12 08:48:56;;;;;;;;;10.33;9.00;;;;;20.66;59.62;100721.50;5092269;27;45507;-57
2022/09/12 08:51:23;;;;;;;;;10.33;10.33;;;;;20.90;59.68;100732.63;5086074;27;45412;-60
2022/09/12 08:53:53;;;;;;;;;11.67;10.00;;;;;21.18;58.92;100725.38;5095946;27;45389;-58
2022/09/12 08:56:19;;;;;;;;;8.33;8.33;;;;;21.45;57.50;100719.09;5099229;27;45404;-59
2022/09/12 08:58:45;;;;;;;;;11.67;11.67;;;;;21.74;57.48;100721.59;5081988;27;45632;-58
2022/09/12 09:01:19;;;;;;;;;12.00;12.00;;;;;22.03;56.66;100731.34;5090096;27;46278;-58
2022/09/12 09:04:09;;;;;;;;;15.33;12.00;;;;;22.35;56.76;100730.75;5087435;27;45519;-58
2022/09/12 09:06:59;;;;;;;;;11.25;11.25;;;;;22.64;54.90;100720.44;5090454;27;45538;-58
2022/09/12 09:09:58;;;;;;;;;10.00;10.00;;;;;22.95;54.43;100723.53;5077465;27;45404;-59
2022/09/12 09:12:53;;;;;;;;;6.75;5.25;;;;;23.29;53.04;100705.50;5087636;27;45264;-59
2022/09/12 09:16:02;;;;;;;;;6.75;6.75;;;;;23.65;52.52;100711.53;5096621;27;45466;-56
2022/09/12 09:18:32;;;;;;;;;8.50;8.50;;;;;23.91;50.96;100712.25;5078798;27;45372;-58
2022/09/12 09:21:19;;;;;;;;;8.25;7.50;;;;;24.11;50.09;100713.59;5088181;27;45673;-57
2022/09/12 09:23:52;;;;;;;;;11.00;10.75;;;;;24.40;50.17;100706.81;5085700;27;45577;-56
2022/09/12 09:26:29;;;;;;;;;9.50;9.50;;;;;24.68;49.88;100697.22;5091477;27;45392;-57
2022/09/12 09:29:09;;;;;;;;;8.00;8.00;;;;;24.98;49.66;100694.72;5090455;27;45532;-57
2022/09/12 09:31:38;;;;;;;;;7.75;7.75;;;;;25.19;47.74;100681.38;5096843;27;46987;-59
2022/09/12 09:34:13;;;;;;;;;10.75;8.25;;;;;25.29;47.31;100679.28;5093923;27;46194;-59
2022/09/12 09:36:45;;;;;;;;;10.60;9.20;;;;;25.45;47.20;100681.06;5095112;27;45715;-59
2022/09/12 09:39:10;;;;;;;;;9.00;9.00;;;;;25.62;48.14;100683.66;5094008;27;45410;-59
2022/09/12 09:41:44;;;;;;;;;6.75;6.00;;;;;25.66;46.71;100688.59;5095711;27;45345;-59
2022/09/12 09:44:09;;;;;;;;;8.75;8.75;;;;;25.63;47.08;100677.19;5095657;27;46831;-59
2022/09/12 09:46:35;;;;;;;;;10.25;8.50;;;;;25.63;47.26;100683.47;5097330;27;45384;-58
2022/09/12 09:49:03;;;;;;;;;10.25;8.50;;;;;25.61;47.15;100677.38;5097257;27;45424;-59
2022/09/12 09:51:33;;;;;;;;;8.25;8.00;;;;;25.57;46.45;100678.75;5096072;27;45480;-61
2022/09/12 09:54:17;;;;;;;;;5.40;5.40;;;;;25.50;46.01;100672.34;5096859;27;45540;-59
2022/09/12 09:56:43;;;;;;;;;3.80;3.80;;;;;25.38;45.89;100660.16;5097329;27;45372;-58
2022/09/12 09:59:16;;;;;;;;;4.00;4.00;;;;;25.44;46.73;100670.34;5097369;27;45414;-58
2022/09/12 10:01:53;;;;;;;;;7.75;5.25;;;;;25.39;46.88;100667.31;5097629;27;45412;-58
2022/09/12 10:04:29;;;;;;;;;9.20;7.00;;;;;25.33;47.62;100662.59;5095425;27;46306;-59
2022/09/12 10:06:59;;;;;;;;;10.00;8.20;;;;;25.35;47.43;100665.97;5097043;27;45284;-58
2022/09/12 10:09:33;;;;;;;;;7.80;6.20;;;;;25.28;47.05;100664.00;5097215;27;45329;-58
2022/09/12 10:12:05;;;;;;;;;6.00;6.00;;;;;25.26;46.98;100655.16;5095268;27;45354;-57
2022/09/12 10:14:39;;;;;;;;;5.40;5.40;;;;;25.22;46.81;100650.22;5096653;27;45726;-58
2022/09/12 10:17:23;;;;;;;;;6.00;6.00;;;;;25.16;46.89;100643.66;5096916;27;45238;-59
2022/09/12 10:19:49;;;;;;;;;7.40;4.80;;;;;25.14;46.98;100640.25;5096826;27;45381;-57
2022/09/12 10:22:18;;;;;;;;;4.75;4.75;;;;;25.13;46.10;100635.84;5095377;27;45436;-60
2022/09/12 10:24:52;;;;;;;;;5.75;5.75;;;;;25.08;46.85;100640.97;5096744;27;46507;-59
2022/09/12 10:27:22;;;;;;;;;11.00;11.00;;;;;25.05;46.01;100645.91;5096467;27;45286;-57
2022/09/12 10:30:16;;;;;;;;;9.00;7.50;;;;;25.01;46.82;100645.44;5112663;27;45459;-59
2022/09/12 10:32:51;;;;;;;;;5.75;5.75;;;;;24.94;46.04;100637.09;5098107;27;45311;-60
2022/09/12 10:35:27;;;;;;;;;2.00;2.00;;;;;25.03;46.13;100648.81;5098677;27;45451;-59
2022/09/12 10:38:15;;;;;;;;;3.00;3.00;;;;;25.06;44.69;100640.28;5097419;27;45399;-63
2022/09/12 10:40:42;;;;;;;;;2.80;2.40;;;;;25.09;45.04;100642.66;5097027;27;45299;-58
2022/09/12 10:43:28;;;;;;;;;2.00;2.00;;;;;25.07;44.57;100636.53;5096010;27;45282;-58
2022/09/12 10:46:18;;;;;;;;;2.00;2.00;;;;;25.12;44.69;100647.72;5095938;27;46128;-59
2022/09/12 10:48:48;;;;;;;;;2.20;2.20;;;;;25.10;45.01;100635.34;5097043;27;45479;-57
2022/09/12 10:51:22;;;;;;;;;3.40;2.20;;;;;25.09;45.40;100647.25;5096485;27;45334;-59
2022/09/12 10:53:50;;;;;;;;;1.00;1.00;;;;;25.03;45.05;100637.09;5095930;27;45424;-58
2022/09/12 10:56:17;;;;;;;;;4.00;3.20;;;;;25.12;44.76;100636.00;5094995;27;45991;-56
2022/09/12 10:59:01;;;;;;;;;2.60;1.80;;;;;25.21;44.75;100635.78;5096639;27;45440;-58
2022/09/12 11:01:44;;;;;;;;;2.80;2.80;;;;;25.28;44.96;100630.47;5097002;27;45378;-57
2022/09/12 11:04:33;;;;;;;;;3.40;3.00;;;;;25.38;44.48;100636.50;5095785;27;44805;-58
2022/09/12 11:07:30;;;;;;;;;2.00;2.00;;;;;25.36;45.42;100621.38;5096062;27;45428;-57
2022/09/12 11:10:04;;;;;;;;;2.00;2.00;;;;;25.39;44.78;100621.00;5096185;27;45231;-57
2022/09/12 11:12:47;;;;;;;;;3.60;3.00;;;;;25.51;45.58;100619.56;5094833;27;45316;-58
2022/09/12 11:15:37;;;;;;;;;3.50;3.50;;;;;25.65;44.88;100621.50;5096382;27;45498;-58
2022/09/12 11:18:13;;;;;;;;;6.80;5.40;;;;;25.84;43.91;100626.47;5094353;27;46151;-59
2022/09/12 11:21:01;;;;;;;;;2.20;2.20;;;;;25.88;44.61;100625.06;5094285;27;45388;-59
2022/09/12 11:23:29;;;;;;;;;2.40;1.40;;;;;26.00;42.85;100632.78;5095182;27;45414;-57
2022/09/12 11:26:10;;;;;;;;;1.80;1.80;;;;;26.09;42.07;100628.97;5098548;27;45307;-59
2022/09/12 11:29:01;;;;;;;;;1.00;1.00;;;;;26.17;42.57;100626.13;5099254;27;45393;-58
2022/09/12 11:32:03;;;;;;;;;4.60;2.00;;;;;26.13;41.41;100619.38;5098100;27;45362;-58
2022/09/12 11:34:43;;;;;;;;;2.00;2.00;;;;;26.19;42.45;100617.81;5099392;27;45471;-59